sensor_id;sensor_type;location;lat;lon;timestamp;temperature;humidity
23371;DHT22;11858;51.056;3.712;2023-10-08T00:01:28;16.30;99.90
23371;DHT22;11858;51.056;3.712;2023-10-08T00:03:54;16.40;99.90
23371;DHT22;11858;51.056;3.712;2023-10-08T00:06:23;16.30;99.90
23371;DHT22;11858;51.056;3.712;2023-10-08T00:08:50;16.20;99.90
23371;DHT22;11858;51.056;3.712;2023-10-08T00:11:19;16.20;99.90
23371;DHT22;11858;51.056;3.712;2023-10-08T00:13:45;16.20;99.90
23371;DHT22;11858;51.056;3.712;2023-10-08T00:16:12;16.20;99.90
23371;DHT22;11858;51.056;3.712;2023-10-08T00:18:42;16.20;99.90
23371;DHT22;11858;51.056;3.712;2023-10-08T00:21:14;16.30;99.90
23371;DHT22;11858;51.056;3.712;2023-10-08T00:23:40;16.20;99.90
23371;DHT22;11858;51.056;3.712;2023-10-08T00:26:10;16.30;99.90
23371;DHT22;11858;51.056;3.712;2023-10-08T00:28:36;16.20;99.90
23371;DHT22;11858;51.056;3.712;2023-10-08T00:31:02;16.20;99.90
23371;DHT22;11858;51.056;3.712;2023-10-08T00:33:41;16.20;99.90
23371;DHT22;11858;51.056;3.712;2023-10-08T00:36:10;15.90;99.90
23371;DHT22;11858;51.056;3.712;2023-10-08T00:38:46;15.90;99.90
23371;DHT22;11858;51.056;3.712;2023-10-08T00:41:16;16.00;99.90
23371;DHT22;11858;51.056;3.712;2023-10-08T00:43:42;15.90;99.90
23371;DHT22;11858;51.056;3.712;2023-10-08T00:46:10;15.90;99.90
23371;DHT22;11858;51.056;3.712;2023-10-08T00:48:54;15.90;99.90
23371;DHT22;11858;51.056;3.712;2023-10-08T00:51:25;15.90;99.90
23371;DHT22;11858;51.056;3.712;2023-10-08T00:56:18;16.10;99.90
23371;DHT22;11858;51.056;3.712;2023-10-08T00:58:45;16.00;99.90
23371;DHT22;11858;51.056;3.712;2023-10-08T01:01:19;16.00;99.90
23371;DHT22;11858;51.056;3.712;2023-10-08T01:03:47;16.00;99.90
23371;DHT22;11858;51.056;3.712;2023-10-08T01:06:16;15.90;99.90
23371;DHT22;11858;51.056;3.712;2023-10-08T01:08:44;15.90;99.90
23371;DHT22;11858;51.056;3.712;2023-10-08T01:11:23;15.80;99.90
23371;DHT22;11858;51.056;3.712;2023-10-08T01:14:04;15.60;99.90
23371;DHT22;11858;51.056;3.712;2023-10-08T01:16:33;15.60;99.90
23371;DHT22;11858;51.056;3.712;2023-10-08T01:19:00;15.50;99.90
23371;DHT22;11858;51.056;3.712;2023-10-08T01:21:29;15.60;99.90
23371;DHT22;11858;51.056;3.712;2023-10-08T01:24:05;15.70;99.90
23371;DHT22;11858;51.056;3.712;2023-10-08T01:26:33;15.70;99.90
23371;DHT22;11858;51.056;3.712;2023-10-08T01:28:59;15.70;99.90
23371;DHT22;11858;51.056;3.712;2023-10-08T01:31:29;15.50;99.90
23371;DHT22;11858;51.056;3.712;2023-10-08T01:33:55;15.60;99.90
23371;DHT22;11858;51.056;3.712;2023-10-08T01:36:24;15.60;99.90
23371;DHT22;11858;51.056;3.712;2023-10-08T01:38:50;15.50;99.90
23371;DHT22;11858;51.056;3.712;2023-10-08T01:41:17;15.50;99.90
23371;DHT22;11858;51.056;3.712;2023-10-08T01:43:48;15.50;99.90
23371;DHT22;11858;51.056;3.712;2023-10-08T01:46:17;15.50;99.90
23371;DHT22;11858;51.056;3.712;2023-10-08T01:48:47;15.30;99.90
23371;DHT22;11858;51.056;3.712;2023-10-08T01:51:19;15.40;99.90
23371;DHT22;11858;51.056;3.712;2023-10-08T01:53:52;15.40;99.90
23371;DHT22;11858;51.056;3.712;2023-10-08T01:56:19;15.30;99.90
23371;DHT22;11858;51.056;3.712;2023-10-08T01:58:45;15.40;99.90
23371;DHT22;11858;51.056;3.712;2023-10-08T02:01:12;15.40;99.90
23371;DHT22;11858;51.056;3.712;2023-10-08T02:03:38;15.40;99.90
23371;DHT22;11858;51.056;3.712;2023-10-08T02:06:04;15.30;99.90
23371;DHT22;11858;51.056;3.712;2023-10-08T02:08:34;15.40;99.90
23371;DHT22;11858;51.056;3.712;2023-10-08T02:10:59;15.40;99.90
23371;DHT22;11858;51.056;3.712;2023-10-08T02:13:25;15.40;99.90
23371;DHT22;11858;51.056;3.712;2023-10-08T02:15:52;15.30;99.90
23371;DHT22;11858;51.056;3.712;2023-10-08T02:18:18;15.40;99.90
23371;DHT22;11858;51.056;3.712;2023-10-08T02:20:44;15.40;99.90
23371;DHT22;11858;51.056;3.712;2023-10-08T02:23:10;15.40;99.90
23371;DHT22;11858;51.056;3.712;2023-10-08T02:25:39;15.40;99.90
23371;DHT22;11858;51.056;3.712;2023-10-08T02:28:06;15.40;99.90
23371;DHT22;11858;51.056;3.712;2023-10-08T02:30:37;15.50;99.90
23371;DHT22;11858;51.056;3.712;2023-10-08T02:33:05;15.40;99.90
23371;DHT22;11858;51.056;3.712;2023-10-08T02:35:40;15.40;99.90
23371;DHT22;11858;51.056;3.712;2023-10-08T02:38:08;15.30;99.90
23371;DHT22;11858;51.056;3.712;2023-10-08T02:40:37;15.40;99.90
23371;DHT22;11858;51.056;3.712;2023-10-08T02:43:03;15.40;99.90
23371;DHT22;11858;51.056;3.712;2023-10-08T02:45:33;15.50;99.90
23371;DHT22;11858;51.056;3.712;2023-10-08T02:48:04;15.30;99.90
23371;DHT22;11858;51.056;3.712;2023-10-08T02:50:38;15.30;99.90
23371;DHT22;11858;51.056;3.712;2023-10-08T02:53:05;15.30;99.90
23371;DHT22;11858;51.056;3.712;2023-10-08T02:55:38;15.40;99.90
23371;DHT22;11858;51.056;3.712;2023-10-08T02:58:09;15.30;99.90
23371;DHT22;11858;51.056;3.712;2023-10-08T03:00:48;15.40;99.90
23371;DHT22;11858;51.056;3.712;2023-10-08T03:03:15;15.40;99.90
23371;DHT22;11858;51.056;3.712;2023-10-08T03:05:51;15.40;99.90
23371;DHT22;11858;51.056;3.712;2023-10-08T03:08:18;15.40;99.90
23371;DHT22;11858;51.056;3.712;2023-10-08T03:10:48;15.40;99.90
23371;DHT22;11858;51.056;3.712;2023-10-08T03:13:17;15.40;99.90
23371;DHT22;11858;51.056;3.712;2023-10-08T03:15:45;15.40;99.90
23371;DHT22;11858;51.056;3.712;2023-10-08T03:18:29;15.50;99.90
23371;DHT22;11858;51.056;3.712;2023-10-08T03:21:05;15.60;99.90
23371;DHT22;11858;51.056;3.712;2023-10-08T03:23:39;15.50;99.90
23371;DHT22;11858;51.056;3.712;2023-10-08T03:26:11;15.60;99.90
23371;DHT22;11858;51.056;3.712;2023-10-08T03:28:38;15.50;99.90
23371;DHT22;11858;51.056;3.712;2023-10-08T03:31:06;15.60;99.90
23371;DHT22;11858;51.056;3.712;2023-10-08T03:33:39;15.50;99.90
23371;DHT22;11858;51.056;3.712;2023-10-08T03:36:07;15.60;99.90
23371;DHT22;11858;51.056;3.712;2023-10-08T03:38:59;15.40;99.90
23371;DHT22;11858;51.056;3.712;2023-10-08T03:41:34;15.30;99.90
23371;DHT22;11858;51.056;3.712;2023-10-08T03:44:06;15.30;99.90
23371;DHT22;11858;51.056;3.712;2023-10-08T03:46:38;15.30;99.90
23371;DHT22;11858;51.056;3.712;2023-10-08T03:49:15;15.50;99.90
23371;DHT22;11858;51.056;3.712;2023-10-08T03:52:00;15.40;99.90
23371;DHT22;11858;51.056;3.712;2023-10-08T03:54:26;15.30;99.90
23371;DHT22;11858;51.056;3.712;2023-10-08T03:56:55;15.30;99.90
23371;DHT22;11858;51.056;3.712;2023-10-08T03:59:21;15.30;99.90
23371;DHT22;11858;51.056;3.712;2023-10-08T04:02:05;15.30;99.90
23371;DHT22;11858;51.056;3.712;2023-10-08T04:04:47;15.20;99.90
23371;DHT22;11858;51.056;3.712;2023-10-08T04:07:26;15.20;99.90
23371;DHT22;11858;51.056;3.712;2023-10-08T04:10:04;15.20;99.90
23371;DHT22;11858;51.056;3.712;2023-10-08T04:12:36;15.20;99.90
23371;DHT22;11858;51.056;3.712;2023-10-08T04:15:09;15.10;99.90
23371;DHT22;11858;51.056;3.712;2023-10-08T04:17:38;15.20;99.90
23371;DHT22;11858;51.056;3.712;2023-10-08T04:20:12;15.20;99.90
23371;DHT22;11858;51.056;3.712;2023-10-08T04:22:57;15.20;99.90
23371;DHT22;11858;51.056;3.712;2023-10-08T04:25:26;15.20;99.90
23371;DHT22;11858;51.056;3.712;2023-10-08T04:27:54;15.20;99.90
23371;DHT22;11858;51.056;3.712;2023-10-08T04:30:20;15.20;99.90
23371;DHT22;11858;51.056;3.712;2023-10-08T04:32:48;15.20;99.90
23371;DHT22;11858;51.056;3.712;2023-10-08T04:35:18;15.20;99.90
23371;DHT22;11858;51.056;3.712;2023-10-08T04:37:45;15.20;99.90
23371;DHT22;11858;51.056;3.712;2023-10-08T04:40:16;15.20;99.90
23371;DHT22;11858;51.056;3.712;2023-10-08T04:42:42;15.30;99.90
23371;DHT22;11858;51.056;3.712;2023-10-08T04:45:10;15.30;99.90
23371;DHT22;11858;51.056;3.712;2023-10-08T04:47:40;15.30;99.90
23371;DHT22;11858;51.056;3.712;2023-10-08T04:50:11;15.30;99.90
23371;DHT22;11858;51.056;3.712;2023-10-08T04:52:43;15.20;99.90
23371;DHT22;11858;51.056;3.712;2023-10-08T04:55:25;15.20;99.90
23371;DHT22;11858;51.056;3.712;2023-10-08T04:57:55;15.20;99.90
23371;DHT22;11858;51.056;3.712;2023-10-08T05:00:21;15.10;99.90
23371;DHT22;11858;51.056;3.712;2023-10-08T05:03:06;15.10;99.90
23371;DHT22;11858;51.056;3.712;2023-10-08T05:05:39;15.00;99.90
23371;DHT22;11858;51.056;3.712;2023-10-08T05:08:22;15.10;99.90
23371;DHT22;11858;51.056;3.712;2023-10-08T05:11:10;15.10;99.90
23371;DHT22;11858;51.056;3.712;2023-10-08T05:13:41;15.00;99.90
23371;DHT22;11858;51.056;3.712;2023-10-08T05:16:26;14.80;99.90
23371;DHT22;11858;51.056;3.712;2023-10-08T05:19:02;14.70;99.90
23371;DHT22;11858;51.056;3.712;2023-10-08T05:21:50;14.70;99.90
23371;DHT22;11858;51.056;3.712;2023-10-08T05:24:18;14.70;99.90
23371;DHT22;11858;51.056;3.712;2023-10-08T05:26:53;14.90;99.90
23371;DHT22;11858;51.056;3.712;2023-10-08T05:29:35;14.90;99.90
23371;DHT22;11858;51.056;3.712;2023-10-08T05:32:38;14.90;99.90
23371;DHT22;11858;51.056;3.712;2023-10-08T05:35:11;15.00;99.90
23371;DHT22;11858;51.056;3.712;2023-10-08T05:38:03;15.00;99.90
23371;DHT22;11858;51.056;3.712;2023-10-08T05:40:40;15.00;99.90
23371;DHT22;11858;51.056;3.712;2023-10-08T05:43:34;14.90;99.90
23371;DHT22;11858;51.056;3.712;2023-10-08T05:46:07;14.90;99.90
23371;DHT22;11858;51.056;3.712;2023-10-08T05:48:53;14.90;99.90
23371;DHT22;11858;51.056;3.712;2023-10-08T05:51:35;14.80;99.90
23371;DHT22;11858;51.056;3.712;2023-10-08T05:54:15;14.80;99.90
23371;DHT22;11858;51.056;3.712;2023-10-08T05:57:08;14.90;99.90
23371;DHT22;11858;51.056;3.712;2023-10-08T06:02:27;14.80;99.90
23371;DHT22;11858;51.056;3.712;2023-10-08T06:04:54;14.70;99.90
23371;DHT22;11858;51.056;3.712;2023-10-08T06:07:42;14.70;99.90
23371;DHT22;11858;51.056;3.712;2023-10-08T06:10:31;14.70;99.90
23371;DHT22;11858;51.056;3.712;2023-10-08T06:15:39;14.70;99.90
23371;DHT22;11858;51.056;3.712;2023-10-08T06:18:15;14.80;99.90
23371;DHT22;11858;51.056;3.712;2023-10-08T06:20:42;14.80;99.90
23371;DHT22;11858;51.056;3.712;2023-10-08T06:23:17;14.90;99.90
23371;DHT22;11858;51.056;3.712;2023-10-08T06:25:46;14.90;99.90
23371;DHT22;11858;51.056;3.712;2023-10-08T06:28:17;14.90;99.90
23371;DHT22;11858;51.056;3.712;2023-10-08T06:30:50;15.00;99.90
23371;DHT22;11858;51.056;3.712;2023-10-08T06:33:20;14.90;99.90
23371;DHT22;11858;51.056;3.712;2023-10-08T06:35:46;15.00;99.90
23371;DHT22;11858;51.056;3.712;2023-10-08T06:38:34;15.00;99.90
23371;DHT22;11858;51.056;3.712;2023-10-08T06:41:01;15.10;99.90
23371;DHT22;11858;51.056;3.712;2023-10-08T06:43:40;15.20;99.90
23371;DHT22;11858;51.056;3.712;2023-10-08T06:46:10;15.20;99.90
23371;DHT22;11858;51.056;3.712;2023-10-08T06:48:38;15.20;99.90
23371;DHT22;11858;51.056;3.712;2023-10-08T06:51:11;15.30;99.90
23371;DHT22;11858;51.056;3.712;2023-10-08T06:53:40;15.50;99.90
23371;DHT22;11858;51.056;3.712;2023-10-08T06:56:06;15.60;99.90
23371;DHT22;11858;51.056;3.712;2023-10-08T06:58:35;15.60;99.90
23371;DHT22;11858;51.056;3.712;2023-10-08T07:01:01;15.70;99.90
23371;DHT22;11858;51.056;3.712;2023-10-08T07:03:31;15.70;99.90
23371;DHT22;11858;51.056;3.712;2023-10-08T07:05:57;15.70;99.90
23371;DHT22;11858;51.056;3.712;2023-10-08T07:08:31;15.70;99.90
23371;DHT22;11858;51.056;3.712;2023-10-08T07:10:58;15.80;99.90
23371;DHT22;11858;51.056;3.712;2023-10-08T07:13:26;15.80;99.90
23371;DHT22;11858;51.056;3.712;2023-10-08T07:15:55;15.90;99.90
23371;DHT22;11858;51.056;3.712;2023-10-08T07:18:22;16.00;99.90
23371;DHT22;11858;51.056;3.712;2023-10-08T07:20:54;16.00;99.90
23371;DHT22;11858;51.056;3.712;2023-10-08T07:23:21;16.00;99.90
23371;DHT22;11858;51.056;3.712;2023-10-08T07:26:03;16.00;99.90
23371;DHT22;11858;51.056;3.712;2023-10-08T07:28:41;16.00;99.90
23371;DHT22;11858;51.056;3.712;2023-10-08T07:31:15;16.10;99.90
23371;DHT22;11858;51.056;3.712;2023-10-08T07:33:48;16.20;99.90
23371;DHT22;11858;51.056;3.712;2023-10-08T07:36:27;16.60;99.90
23371;DHT22;11858;51.056;3.712;2023-10-08T07:38:54;16.70;99.90
23371;DHT22;11858;51.056;3.712;2023-10-08T07:41:20;16.90;99.90
23371;DHT22;11858;51.056;3.712;2023-10-08T07:43:47;16.70;99.90
23371;DHT22;11858;51.056;3.712;2023-10-08T07:46:24;16.60;99.90
23371;DHT22;11858;51.056;3.712;2023-10-08T07:48:52;16.80;99.90
23371;DHT22;11858;51.056;3.712;2023-10-08T07:51:18;17.20;99.90
23371;DHT22;11858;51.056;3.712;2023-10-08T07:53:48;17.60;99.90
23371;DHT22;11858;51.056;3.712;2023-10-08T07:56:13;18.30;99.90
23371;DHT22;11858;51.056;3.712;2023-10-08T07:58:39;18.50;99.90
23371;DHT22;11858;51.056;3.712;2023-10-08T08:01:08;18.90;99.90
23371;DHT22;11858;51.056;3.712;2023-10-08T08:03:37;19.50;99.90
23371;DHT22;11858;51.056;3.712;2023-10-08T08:06:04;19.30;99.90
23371;DHT22;11858;51.056;3.712;2023-10-08T08:08:32;19.50;99.90
23371;DHT22;11858;51.056;3.712;2023-10-08T08:11:05;20.40;99.90
23371;DHT22;11858;51.056;3.712;2023-10-08T08:13:40;20.90;99.90
23371;DHT22;11858;51.056;3.712;2023-10-08T08:16:11;21.30;99.90
23371;DHT22;11858;51.056;3.712;2023-10-08T08:18:46;21.50;99.90
23371;DHT22;11858;51.056;3.712;2023-10-08T08:21:16;21.60;99.90
23371;DHT22;11858;51.056;3.712;2023-10-08T08:23:43;21.80;99.90
23371;DHT22;11858;51.056;3.712;2023-10-08T08:26:19;22.10;99.90
23371;DHT22;11858;51.056;3.712;2023-10-08T08:29:01;22.60;99.90
23371;DHT22;11858;51.056;3.712;2023-10-08T08:31:30;22.90;99.90
23371;DHT22;11858;51.056;3.712;2023-10-08T08:34:01;23.00;99.90
23371;DHT22;11858;51.056;3.712;2023-10-08T08:36:29;23.50;99.90
23371;DHT22;11858;51.056;3.712;2023-10-08T08:38:57;23.90;99.90
23371;DHT22;11858;51.056;3.712;2023-10-08T08:41:23;24.10;99.90
23371;DHT22;11858;51.056;3.712;2023-10-08T08:43:50;24.10;99.90
23371;DHT22;11858;51.056;3.712;2023-10-08T08:46:33;24.50;99.90
23371;DHT22;11858;51.056;3.712;2023-10-08T08:49:05;24.50;99.90
23371;DHT22;11858;51.056;3.712;2023-10-08T08:51:33;25.00;99.90
23371;DHT22;11858;51.056;3.712;2023-10-08T08:54:04;25.90;99.90
23371;DHT22;11858;51.056;3.712;2023-10-08T08:56:34;26.10;99.90
23371;DHT22;11858;51.056;3.712;2023-10-08T08:59:01;26.40;99.90
23371;DHT22;11858;51.056;3.712;2023-10-08T09:01:27;26.60;99.90
23371;DHT22;11858;51.056;3.712;2023-10-08T09:04:02;26.30;99.90
23371;DHT22;11858;51.056;3.712;2023-10-08T09:06:32;25.20;99.90
23371;DHT22;11858;51.056;3.712;2023-10-08T09:09:00;24.40;99.90
23371;DHT22;11858;51.056;3.712;2023-10-08T09:11:40;23.80;99.90
23371;DHT22;11858;51.056;3.712;2023-10-08T09:14:08;23.50;99.90
23371;DHT22;11858;51.056;3.712;2023-10-08T09:16:35;23.80;99.90
23371;DHT22;11858;51.056;3.712;2023-10-08T09:19:02;24.30;99.90
23371;DHT22;11858;51.056;3.712;2023-10-08T09:21:30;24.80;99.90
23371;DHT22;11858;51.056;3.712;2023-10-08T09:23:56;25.40;99.90
23371;DHT22;11858;51.056;3.712;2023-10-08T09:26:25;26.30;99.90
23371;DHT22;11858;51.056;3.712;2023-10-08T09:28:52;26.80;99.90
23371;DHT22;11858;51.056;3.712;2023-10-08T09:31:18;26.20;99.90
23371;DHT22;11858;51.056;3.712;2023-10-08T09:33:56;26.10;99.90
23371;DHT22;11858;51.056;3.712;2023-10-08T09:36:22;26.70;99.90
23371;DHT22;11858;51.056;3.712;2023-10-08T09:39:02;27.50;99.90
23371;DHT22;11858;51.056;3.712;2023-10-08T09:41:32;28.00;99.90
23371;DHT22;11858;51.056;3.712;2023-10-08T09:44:01;27.90;99.90
23371;DHT22;11858;51.056;3.712;2023-10-08T09:46:31;28.30;99.90
23371;DHT22;11858;51.056;3.712;2023-10-08T09:49:02;28.30;99.90
23371;DHT22;11858;51.056;3.712;2023-10-08T09:51:34;28.90;99.90
23371;DHT22;11858;51.056;3.712;2023-10-08T09:54:09;28.70;99.90
23371;DHT22;11858;51.056;3.712;2023-10-08T09:56:36;29.10;99.90
23371;DHT22;11858;51.056;3.712;2023-10-08T09:59:04;29.30;99.90
23371;DHT22;11858;51.056;3.712;2023-10-08T10:01:30;29.20;99.90
23371;DHT22;11858;51.056;3.712;2023-10-08T10:03:57;29.70;99.90
23371;DHT22;11858;51.056;3.712;2023-10-08T10:06:26;29.60;99.90
23371;DHT22;11858;51.056;3.712;2023-10-08T10:08:55;29.60;99.90
23371;DHT22;11858;51.056;3.712;2023-10-08T10:11:29;29.80;99.90
23371;DHT22;11858;51.056;3.712;2023-10-08T10:13:59;29.80;99.90
23371;DHT22;11858;51.056;3.712;2023-10-08T10:16:25;29.60;99.90
23371;DHT22;11858;51.056;3.712;2023-10-08T10:18:56;30.20;99.90
23371;DHT22;11858;51.056;3.712;2023-10-08T10:21:32;30.10;99.90
23371;DHT22;11858;51.056;3.712;2023-10-08T10:23:58;29.70;99.90
23371;DHT22;11858;51.056;3.712;2023-10-08T10:26:35;29.70;99.90
23371;DHT22;11858;51.056;3.712;2023-10-08T10:29:21;29.50;99.90
23371;DHT22;11858;51.056;3.712;2023-10-08T10:31:49;29.00;99.90
23371;DHT22;11858;51.056;3.712;2023-10-08T10:34:26;29.40;99.90
23371;DHT22;11858;51.056;3.712;2023-10-08T10:36:57;30.30;99.90
23371;DHT22;11858;51.056;3.712;2023-10-08T10:39:34;30.90;99.90
23371;DHT22;11858;51.056;3.712;2023-10-08T10:42:05;30.50;99.90
23371;DHT22;11858;51.056;3.712;2023-10-08T10:44:44;30.00;99.90
23371;DHT22;11858;51.056;3.712;2023-10-08T10:47:10;30.20;99.90
23371;DHT22;11858;51.056;3.712;2023-10-08T10:49:42;30.00;99.90
23371;DHT22;11858;51.056;3.712;2023-10-08T10:52:27;30.50;99.90
23371;DHT22;11858;51.056;3.712;2023-10-08T10:55:17;31.00;99.90
23371;DHT22;11858;51.056;3.712;2023-10-08T10:57:55;30.80;99.90
23371;DHT22;11858;51.056;3.712;2023-10-08T11:00:22;30.90;99.90
23371;DHT22;11858;51.056;3.712;2023-10-08T11:03:11;31.30;99.90
23371;DHT22;11858;51.056;3.712;2023-10-08T11:05:49;31.40;99.90
23371;DHT22;11858;51.056;3.712;2023-10-08T11:08:17;31.00;99.90
23371;DHT22;11858;51.056;3.712;2023-10-08T11:10:48;30.60;99.90
23371;DHT22;11858;51.056;3.712;2023-10-08T11:13:23;30.20;99.90
23371;DHT22;11858;51.056;3.712;2023-10-08T11:15:54;30.10;99.90
23371;DHT22;11858;51.056;3.712;2023-10-08T11:18:24;29.90;99.90
23371;DHT22;11858;51.056;3.712;2023-10-08T11:20:51;30.20;99.90
23371;DHT22;11858;51.056;3.712;2023-10-08T11:23:38;30.60;99.90
23371;DHT22;11858;51.056;3.712;2023-10-08T11:26:07;30.20;99.90
23371;DHT22;11858;51.056;3.712;2023-10-08T11:28:35;29.90;99.90
23371;DHT22;11858;51.056;3.712;2023-10-08T11:31:09;29.60;99.90
23371;DHT22;11858;51.056;3.712;2023-10-08T11:33:39;29.90;99.90
23371;DHT22;11858;51.056;3.712;2023-10-08T11:36:07;30.00;99.90
23371;DHT22;11858;51.056;3.712;2023-10-08T11:38:46;29.60;99.90
23371;DHT22;11858;51.056;3.712;2023-10-08T11:41:17;30.00;99.90
23371;DHT22;11858;51.056;3.712;2023-10-08T11:43:53;29.70;99.90
23371;DHT22;11858;51.056;3.712;2023-10-08T11:46:29;30.50;99.90
23371;DHT22;11858;51.056;3.712;2023-10-08T11:48:59;30.90;99.90
23371;DHT22;11858;51.056;3.712;2023-10-08T11:51:33;30.50;99.90
23371;DHT22;11858;51.056;3.712;2023-10-08T11:54:03;30.80;99.90
23371;DHT22;11858;51.056;3.712;2023-10-08T11:56:32;30.40;99.90
23371;DHT22;11858;51.056;3.712;2023-10-08T11:59:01;30.10;99.90
23371;DHT22;11858;51.056;3.712;2023-10-08T12:01:27;30.80;99.90
23371;DHT22;11858;51.056;3.712;2023-10-08T12:03:53;31.20;99.90
23371;DHT22;11858;51.056;3.712;2023-10-08T12:06:25;31.50;99.90
23371;DHT22;11858;51.056;3.712;2023-10-08T12:08:50;32.20;99.90
23371;DHT22;11858;51.056;3.712;2023-10-08T12:11:19;32.20;99.90
23371;DHT22;11858;51.056;3.712;2023-10-08T12:13:48;31.70;99.90
23371;DHT22;11858;51.056;3.712;2023-10-08T12:16:16;31.60;99.90
23371;DHT22;11858;51.056;3.712;2023-10-08T12:18:47;31.00;99.90
23371;DHT22;11858;51.056;3.712;2023-10-08T12:21:22;30.70;99.90
23371;DHT22;11858;51.056;3.712;2023-10-08T12:23:50;30.40;99.90
23371;DHT22;11858;51.056;3.712;2023-10-08T12:26:17;30.40;99.90
23371;DHT22;11858;51.056;3.712;2023-10-08T12:28:45;31.00;99.90
23371;DHT22;11858;51.056;3.712;2023-10-08T12:31:14;31.60;99.90
23371;DHT22;11858;51.056;3.712;2023-10-08T12:33:41;31.50;99.90
23371;DHT22;11858;51.056;3.712;2023-10-08T12:36:09;31.30;99.90
23371;DHT22;11858;51.056;3.712;2023-10-08T12:38:40;31.80;99.90
23371;DHT22;11858;51.056;3.712;2023-10-08T12:41:07;31.80;99.90
23371;DHT22;11858;51.056;3.712;2023-10-08T12:43:42;31.80;99.90
23371;DHT22;11858;51.056;3.712;2023-10-08T12:46:12;31.90;99.90
23371;DHT22;11858;51.056;3.712;2023-10-08T12:48:44;32.00;99.90
23371;DHT22;11858;51.056;3.712;2023-10-08T12:51:13;32.10;99.90
23371;DHT22;11858;51.056;3.712;2023-10-08T12:53:39;32.00;99.90
23371;DHT22;11858;51.056;3.712;2023-10-08T12:56:08;31.90;99.90
23371;DHT22;11858;51.056;3.712;2023-10-08T12:58:42;32.00;99.90
23371;DHT22;11858;51.056;3.712;2023-10-08T13:01:13;31.90;99.90
23371;DHT22;11858;51.056;3.712;2023-10-08T13:03:40;32.30;99.90
23371;DHT22;11858;51.056;3.712;2023-10-08T13:06:13;33.30;99.90
23371;DHT22;11858;51.056;3.712;2023-10-08T13:08:51;33.50;99.90
23371;DHT22;11858;51.056;3.712;2023-10-08T13:11:21;32.70;99.90
23371;DHT22;11858;51.056;3.712;2023-10-08T13:13:54;33.60;99.90
23371;DHT22;11858;51.056;3.712;2023-10-08T13:16:24;33.30;99.90
23371;DHT22;11858;51.056;3.712;2023-10-08T13:18:51;33.10;99.90
23371;DHT22;11858;51.056;3.712;2023-10-08T13:21:18;33.30;99.90
23371;DHT22;11858;51.056;3.712;2023-10-08T13:23:51;32.90;99.90
23371;DHT22;11858;51.056;3.712;2023-10-08T13:26:16;33.20;99.90
23371;DHT22;11858;51.056;3.712;2023-10-08T13:28:43;32.40;99.90
23371;DHT22;11858;51.056;3.712;2023-10-08T13:31:10;32.20;99.90
23371;DHT22;11858;51.056;3.712;2023-10-08T13:33:39;32.20;99.90
23371;DHT22;11858;51.056;3.712;2023-10-08T13:36:06;32.70;99.90
23371;DHT22;11858;51.056;3.712;2023-10-08T13:38:38;32.90;99.90
23371;DHT22;11858;51.056;3.712;2023-10-08T13:41:04;32.70;99.90
23371;DHT22;11858;51.056;3.712;2023-10-08T13:43:41;32.80;99.90
23371;DHT22;11858;51.056;3.712;2023-10-08T13:46:11;32.70;99.90
23371;DHT22;11858;51.056;3.712;2023-10-08T13:48:43;32.40;99.90
23371;DHT22;11858;51.056;3.712;2023-10-08T13:51:14;32.40;99.90
23371;DHT22;11858;51.056;3.712;2023-10-08T13:53:48;33.20;99.90
23371;DHT22;11858;51.056;3.712;2023-10-08T13:56:20;32.60;99.90
23371;DHT22;11858;51.056;3.712;2023-10-08T13:58:50;32.90;99.90
23371;DHT22;11858;51.056;3.712;2023-10-08T14:01:17;32.40;99.90
23371;DHT22;11858;51.056;3.712;2023-10-08T14:03:49;32.70;99.90
23371;DHT22;11858;51.056;3.712;2023-10-08T14:06:19;33.10;99.90
23371;DHT22;11858;51.056;3.712;2023-10-08T14:08:46;32.30;99.90
23371;DHT22;11858;51.056;3.712;2023-10-08T14:11:20;31.90;99.90
23371;DHT22;11858;51.056;3.712;2023-10-08T14:13:50;32.80;99.90
23371;DHT22;11858;51.056;3.712;2023-10-08T14:16:17;33.40;99.90
23371;DHT22;11858;51.056;3.712;2023-10-08T14:18:44;33.50;99.90
23371;DHT22;11858;51.056;3.712;2023-10-08T14:21:16;33.90;99.90
23371;DHT22;11858;51.056;3.712;2023-10-08T14:23:44;33.80;99.90
23371;DHT22;11858;51.056;3.712;2023-10-08T14:26:10;32.70;99.90
23371;DHT22;11858;51.056;3.712;2023-10-08T14:28:36;32.80;99.90
23371;DHT22;11858;51.056;3.712;2023-10-08T14:31:09;32.50;99.90
23371;DHT22;11858;51.056;3.712;2023-10-08T14:33:41;33.10;99.90
23371;DHT22;11858;51.056;3.712;2023-10-08T14:36:24;33.70;99.90
23371;DHT22;11858;51.056;3.712;2023-10-08T14:39:09;34.00;99.90
23371;DHT22;11858;51.056;3.712;2023-10-08T14:41:53;33.40;99.90
23371;DHT22;11858;51.056;3.712;2023-10-08T14:44:37;33.60;99.90
23371;DHT22;11858;51.056;3.712;2023-10-08T14:47:04;34.00;99.90
23371;DHT22;11858;51.056;3.712;2023-10-08T14:49:30;34.00;99.90
23371;DHT22;11858;51.056;3.712;2023-10-08T14:51:56;33.20;99.90
23371;DHT22;11858;51.056;3.712;2023-10-08T14:54:21;33.10;99.90
23371;DHT22;11858;51.056;3.712;2023-10-08T14:56:47;32.60;99.90
23371;DHT22;11858;51.056;3.712;2023-10-08T14:59:13;32.20;99.90
23371;DHT22;11858;51.056;3.712;2023-10-08T15:01:41;31.40;99.90
23371;DHT22;11858;51.056;3.712;2023-10-08T15:04:06;31.70;99.90
23371;DHT22;11858;51.056;3.712;2023-10-08T15:06:37;32.10;99.90
23371;DHT22;11858;51.056;3.712;2023-10-08T15:09:07;32.30;99.90
23371;DHT22;11858;51.056;3.712;2023-10-08T15:11:44;32.90;99.90
23371;DHT22;11858;51.056;3.712;2023-10-08T15:14:12;32.60;99.90
23371;DHT22;11858;51.056;3.712;2023-10-08T15:16:38;32.50;99.90
23371;DHT22;11858;51.056;3.712;2023-10-08T15:19:06;32.70;99.90
23371;DHT22;11858;51.056;3.712;2023-10-08T15:21:37;32.00;99.90
23371;DHT22;11858;51.056;3.712;2023-10-08T15:24:05;32.10;99.90
23371;DHT22;11858;51.056;3.712;2023-10-08T15:26:36;31.90;99.90
23371;DHT22;11858;51.056;3.712;2023-10-08T15:29:02;32.10;99.90
23371;DHT22;11858;51.056;3.712;2023-10-08T15:31:28;32.00;99.90
23371;DHT22;11858;51.056;3.712;2023-10-08T15:33:54;31.80;99.90
23371;DHT22;11858;51.056;3.712;2023-10-08T15:36:20;31.40;99.90
23371;DHT22;11858;51.056;3.712;2023-10-08T15:38:45;31.30;99.90
23371;DHT22;11858;51.056;3.712;2023-10-08T15:41:11;31.00;99.90
23371;DHT22;11858;51.056;3.712;2023-10-08T15:43:39;29.90;99.90
23371;DHT22;11858;51.056;3.712;2023-10-08T15:46:05;29.30;99.90
23371;DHT22;11858;51.056;3.712;2023-10-08T15:48:31;29.10;99.90
23371;DHT22;11858;51.056;3.712;2023-10-08T15:50:59;28.60;99.90
23371;DHT22;11858;51.056;3.712;2023-10-08T15:53:25;28.00;99.90
23371;DHT22;11858;51.056;3.712;2023-10-08T15:55:51;27.80;99.90
23371;DHT22;11858;51.056;3.712;2023-10-08T15:58:17;27.70;99.90
23371;DHT22;11858;51.056;3.712;2023-10-08T16:00:42;27.50;99.90
23371;DHT22;11858;51.056;3.712;2023-10-08T16:03:08;27.20;99.90